sensor_id;sensor_type;location;lat;lon;timestamp;pressure;altitude;pressure_sealevel;temperature;humidity
3206;BME280;1615;53.602;11.418;2022-12-16T00:00:22;100716.09;;;0.12;100.00
3206;BME280;1615;53.602;11.418;2022-12-16T00:02:51;100737.94;;;0.22;100.00
3206;BME280;1615;53.602;11.418;2022-12-16T00:05:17;100735.69;;;0.19;100.00
3206;BME280;1615;53.602;11.418;2022-12-16T00:07:44;100729.44;;;0.18;100.00
3206;BME280;1615;53.602;11.418;2022-12-16T00:10:10;100726.69;;;0.25;100.00
3206;BME280;1615;53.602;11.418;2022-12-16T00:12:35;100739.34;;;0.24;100.00
3206;BME280;1615;53.602;11.418;2022-12-16T00:15:04;100651.16;;;-0.34;100.00
3206;BME280;1615;53.602;11.418;2022-12-16T00:17:30;100721.91;;;0.09;100.00
3206;BME280;1615;53.602;11.418;2022-12-16T00:19:55;100739.16;;;0.37;100.00
3206;BME280;1615;53.602;11.418;2022-12-16T00:22:21;100737.19;;;0.44;100.00
3206;BME280;1615;53.602;11.418;2022-12-16T00:24:47;100740.66;;;0.63;100.00
3206;BME280;1615;53.602;11.418;2022-12-16T00:27:12;100740.94;;;0.73;100.00
3206;BME280;1615;53.602;11.418;2022-12-16T00:29:37;100747.53;;;0.77;100.00
3206;BME280;1615;53.602;11.418;2022-12-16T00:32:03;100745.88;;;0.76;100.00
3206;BME280;1615;53.602;11.418;2022-12-16T00:34:30;100702.47;;;0.36;100.00
3206;BME280;1615;53.602;11.418;2022-12-16T00:36:55;100744.47;;;0.85;100.00
3206;BME280;1615;53.602;11.418;2022-12-16T00:39:21;100751.81;;;0.96;100.00
3206;BME280;1615;53.602;11.418;2022-12-16T00:41:47;100749.69;;;0.98;100.00
3206;BME280;1615;53.602;11.418;2022-12-16T00:44:12;100756.63;;;1.05;100.00
3206;BME280;1615;53.602;11.418;2022-12-16T00:46:38;100747.25;;;1.08;100.00
3206;BME280;1615;53.602;11.418;2022-12-16T00:49:04;100638.72;;;0.42;100.00
3206;BME280;1615;53.602;11.418;2022-12-16T00:51:29;100706.94;;;0.72;100.00
3206;BME280;1615;53.602;11.418;2022-12-16T00:53:54;100754.25;;;0.86;100.00
3206;BME280;1615;53.602;11.418;2022-12-16T00:56:20;100744.13;;;0.52;100.00
3206;BME280;1615;53.602;11.418;2022-12-16T00:58:45;100761.16;;;0.52;100.00
3206;BME280;1615;53.602;11.418;2022-12-16T01:01:11;100770.88;;;0.53;100.00
3206;BME280;1615;53.602;11.418;2022-12-16T01:03:36;100763.56;;;0.72;100.00
3206;BME280;1615;53.602;11.418;2022-12-16T01:06:10;100717.03;;;0.47;100.00
3206;BME280;1615;53.602;11.418;2022-12-16T01:08:36;100779.69;;;0.90;100.00
3206;BME280;1615;53.602;11.418;2022-12-16T01:11:02;100697.22;;;0.41;100.00
3206;BME280;1615;53.602;11.418;2022-12-16T01:13:27;100786.50;;;0.92;100.00
3206;BME280;1615;53.602;11.418;2022-12-16T01:15:53;100787.91;;;0.95;100.00
3206;BME280;1615;53.602;11.418;2022-12-16T01:18:19;100773.13;;;0.86;100.00
3206;BME280;1615;53.602;11.418;2022-12-16T01:20:44;100786.75;;;0.91;100.00
3206;BME280;1615;53.602;11.418;2022-12-16T01:23:09;100793.00;;;1.03;100.00
3206;BME280;1615;53.602;11.418;2022-12-16T01:25:35;100786.53;;;1.04;100.00
3206;BME280;1615;53.602;11.418;2022-12-16T01:28:00;100787.59;;;1.03;100.00
3206;BME280;1615;53.602;11.418;2022-12-16T01:30:26;100770.81;;;1.01;100.00
3206;BME280;1615;53.602;11.418;2022-12-16T01:32:51;100788.94;;;1.12;100.00
3206;BME280;1615;53.602;11.418;2022-12-16T01:35:16;100797.13;;;1.05;100.00
3206;BME280;1615;53.602;11.418;2022-12-16T01:37:42;100781.59;;;1.01;100.00
3206;BME280;1615;53.602;11.418;2022-12-16T01:40:09;100788.41;;;1.03;100.00
3206;BME280;1615;53.602;11.418;2022-12-16T01:42:39;100777.16;;;1.06;100.00
3206;BME280;1615;53.602;11.418;2022-12-16T01:45:30;100784.19;;;0.96;100.00
3206;BME280;1615;53.602;11.418;2022-12-16T01:48:00;100705.97;;;0.37;100.00
3206;BME280;1615;53.602;11.418;2022-12-16T01:50:29;100743.06;;;0.71;100.00
3206;BME280;1615;53.602;11.418;2022-12-16T01:52:56;100795.59;;;1.09;100.00
3206;BME280;1615;53.602;11.418;2022-12-16T01:55:27;100792.88;;;0.98;100.00
3206;BME280;1615;53.602;11.418;2022-12-16T01:57:59;100796.28;;;0.93;100.00
3206;BME280;1615;53.602;11.418;2022-12-16T02:00:26;100745.84;;;0.64;100.00
3206;BME280;1615;53.602;11.418;2022-12-16T02:02:56;100797.16;;;0.87;100.00
3206;BME280;1615;53.602;11.418;2022-12-16T02:05:22;100803.25;;;0.83;100.00
3206;BME280;1615;53.602;11.418;2022-12-16T02:10:16;100805.44;;;1.04;100.00
3206;BME280;1615;53.602;11.418;2022-12-16T02:13:00;100812.34;;;1.00;100.00
3206;BME280;1615;53.602;11.418;2022-12-16T02:18:58;100815.00;;;1.18;100.00
3206;BME280;1615;53.602;11.418;2022-12-16T02:27:31;100820.75;;;1.33;100.00
3206;BME280;1615;53.602;11.418;2022-12-16T02:35:58;100824.19;;;1.40;100.00
3206;BME280;1615;53.602;11.418;2022-12-16T02:38:35;100824.06;;;1.35;100.00
3206;BME280;1615;53.602;11.418;2022-12-16T02:41:13;100751.16;;;0.71;100.00
3206;BME280;1615;53.602;11.418;2022-12-16T02:46:06;100819.28;;;0.96;100.00
3206;BME280;1615;53.602;11.418;2022-12-16T02:48:32;100840.25;;;0.94;100.00
3206;BME280;1615;53.602;11.418;2022-12-16T02:50:58;100821.69;;;0.86;100.00
3206;BME280;1615;53.602;11.418;2022-12-16T02:53:23;100834.84;;;0.94;100.00
3206;BME280;1615;53.602;11.418;2022-12-16T02:55:59;100779.81;;;0.54;100.00
3206;BME280;1615;53.602;11.418;2022-12-16T02:58:45;100842.63;;;1.02;100.00
3206;BME280;1615;53.602;11.418;2022-12-16T03:01:35;100827.75;;;1.11;100.00
3206;BME280;1615;53.602;11.418;2022-12-16T03:04:18;100749.63;;;0.75;100.00
3206;BME280;1615;53.602;11.418;2022-12-16T03:06:48;100835.94;;;1.34;100.00
3206;BME280;1615;53.602;11.418;2022-12-16T03:09:18;100834.72;;;1.30;100.00
3206;BME280;1615;53.602;11.418;2022-12-16T03:11:47;100834.72;;;1.30;100.00
3206;BME280;1615;53.602;11.418;2022-12-16T03:14:15;100828.63;;;1.34;100.00
3206;BME280;1615;53.602;11.418;2022-12-16T03:16:43;100767.06;;;1.02;100.00
3206;BME280;1615;53.602;11.418;2022-12-16T03:19:10;100826.91;;;1.40;100.00
3206;BME280;1615;53.602;11.418;2022-12-16T03:21:42;100826.28;;;1.26;100.00
3206;BME280;1615;53.602;11.418;2022-12-16T03:24:10;100833.75;;;1.13;100.00
3206;BME280;1615;53.602;11.418;2022-12-16T03:27:01;100830.31;;;1.06;100.00
3206;BME280;1615;53.602;11.418;2022-12-16T03:32:04;100838.47;;;0.88;100.00
3206;BME280;1615;53.602;11.418;2022-12-16T03:34:37;100861.56;;;0.84;100.00
3206;BME280;1615;53.602;11.418;2022-12-16T03:37:09;100836.91;;;0.80;100.00
3206;BME280;1615;53.602;11.418;2022-12-16T03:39:45;100712.78;;;0.10;100.00
3206;BME280;1615;53.602;11.418;2022-12-16T03:42:12;100831.44;;;0.69;100.00
3206;BME280;1615;53.602;11.418;2022-12-16T03:44:41;100825.69;;;0.65;100.00
3206;BME280;1615;53.602;11.418;2022-12-16T03:47:07;100842.63;;;0.72;100.00
3206;BME280;1615;53.602;11.418;2022-12-16T03:49:32;100848.09;;;0.66;100.00
3206;BME280;1615;53.602;11.418;2022-12-16T03:51:58;100844.06;;;0.57;100.00
3206;BME280;1615;53.602;11.418;2022-12-16T03:54:23;100441.16;;;-1.83;100.00
3206;BME280;1615;53.602;11.418;2022-12-16T03:56:50;100840.91;;;0.60;100.00
3206;BME280;1615;53.602;11.418;2022-12-16T03:59:15;100843.84;;;0.58;100.00
3206;BME280;1615;53.602;11.418;2022-12-16T04:01:40;100740.31;;;-0.06;100.00
3206;BME280;1615;53.602;11.418;2022-12-16T04:04:06;100749.19;;;0.01;100.00
3206;BME280;1615;53.602;11.418;2022-12-16T04:06:31;100829.00;;;0.49;100.00
3206;BME280;1615;53.602;11.418;2022-12-16T04:08:56;100829.69;;;0.45;100.00
3206;BME280;1615;53.602;11.418;2022-12-16T04:11:22;100836.16;;;0.44;100.00
3206;BME280;1615;53.602;11.418;2022-12-16T04:14:07;100834.19;;;0.51;100.00
3206;BME280;1615;53.602;11.418;2022-12-16T04:16:51;100839.00;;;0.49;100.00
3206;BME280;1615;53.602;11.418;2022-12-16T04:19:36;100841.75;;;0.42;100.00
3206;BME280;1615;53.602;11.418;2022-12-16T04:22:23;100832.00;;;0.59;100.00
3206;BME280;1615;53.602;11.418;2022-12-16T04:25:12;100847.47;;;0.82;100.00
3206;BME280;1615;53.602;11.418;2022-12-16T04:27:38;100838.25;;;0.89;100.00
3206;BME280;1615;53.602;11.418;2022-12-16T04:30:04;100841.88;;;0.95;100.00
3206;BME280;1615;53.602;11.418;2022-12-16T04:33:03;100844.19;;;1.09;100.00
3206;BME280;1615;53.602;11.418;2022-12-16T04:35:49;100839.16;;;1.13;100.00
3206;BME280;1615;53.602;11.418;2022-12-16T04:38:32;100834.19;;;1.10;100.00
3206;BME280;1615;53.602;11.418;2022-12-16T04:41:17;100802.56;;;0.58;100.00
3206;BME280;1615;53.602;11.418;2022-12-16T04:44:01;100748.03;;;0.56;100.00
3206;BME280;1615;53.602;11.418;2022-12-16T04:46:45;100806.22;;;0.93;100.00
3206;BME280;1615;53.602;11.418;2022-12-16T04:49:29;100845.88;;;1.33;100.00
3206;BME280;1615;53.602;11.418;2022-12-16T04:52:14;100839.56;;;1.39;100.00
3206;BME280;1615;53.602;11.418;2022-12-16T04:54:58;100840.59;;;1.27;100.00
3206;BME280;1615;53.602;11.418;2022-12-16T04:57:46;100845.97;;;1.27;100.00
3206;BME280;1615;53.602;11.418;2022-12-16T05:00:31;100855.09;;;1.44;100.00
3206;BME280;1615;53.602;11.418;2022-12-16T05:03:15;100850.84;;;1.36;100.00
3206;BME280;1615;53.602;11.418;2022-12-16T05:05:59;100847.66;;;1.28;100.00
3206;BME280;1615;53.602;11.418;2022-12-16T05:08:47;100871.06;;;1.16;100.00
3206;BME280;1615;53.602;11.418;2022-12-16T05:11:32;100859.09;;;1.12;100.00
3206;BME280;1615;53.602;11.418;2022-12-16T05:14:16;100856.72;;;1.04;100.00
3206;BME280;1615;53.602;11.418;2022-12-16T05:17:00;100766.00;;;0.62;100.00
3206;BME280;1615;53.602;11.418;2022-12-16T05:19:44;100857.44;;;1.11;100.00
3206;BME280;1615;53.602;11.418;2022-12-16T05:22:28;100838.22;;;1.19;100.00
3206;BME280;1615;53.602;11.418;2022-12-16T05:25:12;100872.81;;;1.10;100.00
3206;BME280;1615;53.602;11.418;2022-12-16T05:27:56;100852.69;;;0.95;100.00
3206;BME280;1615;53.602;11.418;2022-12-16T05:30:40;100872.31;;;1.02;100.00
3206;BME280;1615;53.602;11.418;2022-12-16T05:33:24;100871.84;;;1.05;100.00
3206;BME280;1615;53.602;11.418;2022-12-16T05:36:08;100875.06;;;1.13;100.00
3206;BME280;1615;53.602;11.418;2022-12-16T05:39:03;100850.88;;;1.07;100.00
3206;BME280;1615;53.602;11.418;2022-12-16T05:41:47;100890.94;;;1.21;100.00
3206;BME280;1615;53.602;11.418;2022-12-16T05:44:31;100895.06;;;1.24;100.00
3206;BME280;1615;53.602;11.418;2022-12-16T05:47:15;100903.59;;;1.21;100.00
3206;BME280;1615;53.602;11.418;2022-12-16T05:49:59;100897.41;;;1.32;100.00
3206;BME280;1615;53.602;11.418;2022-12-16T05:52:53;100899.81;;;1.40;100.00
3206;BME280;1615;53.602;11.418;2022-12-16T05:55:38;100898.31;;;1.44;100.00
3206;BME280;1615;53.602;11.418;2022-12-16T05:58:23;100915.00;;;1.52;100.00
3206;BME280;1615;53.602;11.418;2022-12-16T06:01:07;100902.06;;;1.54;100.00
3206;BME280;1615;53.602;11.418;2022-12-16T06:03:51;100900.78;;;1.57;100.00
3206;BME280;1615;53.602;11.418;2022-12-16T06:06:35;100910.88;;;1.50;100.00
3206;BME280;1615;53.602;11.418;2022-12-16T06:09:19;100866.31;;;1.00;100.00
3206;BME280;1615;53.602;11.418;2022-12-16T06:12:03;100918.50;;;1.41;100.00
3206;BME280;1615;53.602;11.418;2022-12-16T06:14:47;100911.75;;;1.32;100.00
3206;BME280;1615;53.602;11.418;2022-12-16T06:17:30;100907.84;;;1.28;100.00
3206;BME280;1615;53.602;11.418;2022-12-16T06:20:15;100925.25;;;1.32;100.00
3206;BME280;1615;53.602;11.418;2022-12-16T06:22:58;100926.19;;;1.38;100.00
3206;BME280;1615;53.602;11.418;2022-12-16T06:25:42;100933.00;;;1.40;100.00
3206;BME280;1615;53.602;11.418;2022-12-16T06:28:26;100882.06;;;1.03;100.00
3206;BME280;1615;53.602;11.418;2022-12-16T06:31:10;100940.09;;;1.41;100.00
3206;BME280;1615;53.602;11.418;2022-12-16T06:33:55;100936.47;;;1.47;100.00
3206;BME280;1615;53.602;11.418;2022-12-16T06:36:39;100947.41;;;1.52;100.00
3206;BME280;1615;53.602;11.418;2022-12-16T06:39:23;100948.97;;;1.60;100.00
3206;BME280;1615;53.602;11.418;2022-12-16T06:42:07;100950.34;;;1.51;100.00
3206;BME280;1615;53.602;11.418;2022-12-16T06:44:51;100894.78;;;1.14;100.00
3206;BME280;1615;53.602;11.418;2022-12-16T06:47:35;100962.56;;;1.53;100.00
3206;BME280;1615;53.602;11.418;2022-12-16T06:50:18;100972.56;;;1.64;100.00
3206;BME280;1615;53.602;11.418;2022-12-16T06:53:02;100970.28;;;1.79;100.00
3206;BME280;1615;53.602;11.418;2022-12-16T06:55:46;100975.31;;;1.76;100.00
3206;BME280;1615;53.602;11.418;2022-12-16T06:58:30;100983.28;;;1.71;100.00
3206;BME280;1615;53.602;11.418;2022-12-16T07:01:16;100889.53;;;1.19;100.00
3206;BME280;1615;53.602;11.418;2022-12-16T07:04:00;100963.06;;;1.62;100.00
3206;BME280;1615;53.602;11.418;2022-12-16T07:06:43;100921.00;;;1.25;100.00
3206;BME280;1615;53.602;11.418;2022-12-16T07:09:28;100937.00;;;1.38;100.00
3206;BME280;1615;53.602;11.418;2022-12-16T07:12:11;100999.38;;;1.77;100.00
3206;BME280;1615;53.602;11.418;2022-12-16T07:14:55;101011.16;;;1.83;100.00
3206;BME280;1615;53.602;11.418;2022-12-16T07:17:39;100999.94;;;1.68;100.00
3206;BME280;1615;53.602;11.418;2022-12-16T07:20:23;101019.00;;;1.73;100.00
3206;BME280;1615;53.602;11.418;2022-12-16T07:23:07;101017.09;;;1.62;100.00
3206;BME280;1615;53.602;11.418;2022-12-16T07:25:52;101020.00;;;1.60;100.00
3206;BME280;1615;53.602;11.418;2022-12-16T07:28:36;101020.38;;;1.64;100.00
3206;BME280;1615;53.602;11.418;2022-12-16T07:31:20;101032.16;;;1.69;100.00
3206;BME280;1615;53.602;11.418;2022-12-16T07:34:04;101031.00;;;1.77;100.00
3206;BME280;1615;53.602;11.418;2022-12-16T07:36:48;101026.06;;;1.74;100.00
3206;BME280;1615;53.602;11.418;2022-12-16T07:39:36;101062.78;;;1.63;100.00
3206;BME280;1615;53.602;11.418;2022-12-16T07:42:21;101053.22;;;1.79;100.00
3206;BME280;1615;53.602;11.418;2022-12-16T07:45:05;101048.72;;;1.73;100.00
3206;BME280;1615;53.602;11.418;2022-12-16T07:47:49;101061.88;;;1.69;100.00
3206;BME280;1615;53.602;11.418;2022-12-16T07:50:34;101057.56;;;1.80;100.00
3206;BME280;1615;53.602;11.418;2022-12-16T07:53:18;101064.06;;;1.90;100.00
3206;BME280;1615;53.602;11.418;2022-12-16T07:56:03;101047.66;;;1.74;100.00
3206;BME280;1615;53.602;11.418;2022-12-16T07:58:46;101078.72;;;1.83;100.00
3206;BME280;1615;53.602;11.418;2022-12-16T08:01:30;101083.66;;;1.86;100.00
3206;BME280;1615;53.602;11.418;2022-12-16T08:04:14;101063.50;;;1.70;100.00
3206;BME280;1615;53.602;11.418;2022-12-16T08:06:58;101086.69;;;1.78;100.00
3206;BME280;1615;53.602;11.418;2022-12-16T08:09:42;101064.06;;;1.61;100.00
3206;BME280;1615;53.602;11.418;2022-12-16T08:12:26;101092.69;;;1.80;100.00
3206;BME280;1615;53.602;11.418;2022-12-16T08:15:10;101075.19;;;1.82;100.00
3206;BME280;1615;53.602;11.418;2022-12-16T08:17:54;101106.47;;;1.90;100.00
3206;BME280;1615;53.602;11.418;2022-12-16T08:20:38;101101.56;;;1.87;100.00
3206;BME280;1615;53.602;11.418;2022-12-16T08:23:22;101071.56;;;1.59;100.00
3206;BME280;1615;53.602;11.418;2022-12-16T08:26:07;101113.72;;;1.78;100.00
3206;BME280;1615;53.602;11.418;2022-12-16T08:28:52;101023.38;;;1.26;100.00
3206;BME280;1615;53.602;11.418;2022-12-16T08:31:35;101123.31;;;1.92;100.00
3206;BME280;1615;53.602;11.418;2022-12-16T08:34:19;101121.56;;;1.97;100.00
3206;BME280;1615;53.602;11.418;2022-12-16T08:37:03;101128.97;;;2.02;100.00
3206;BME280;1615;53.602;11.418;2022-12-16T08:39:47;101086.84;;;1.65;100.00
3206;BME280;1615;53.602;11.418;2022-12-16T08:42:31;101137.00;;;2.08;100.00
3206;BME280;1615;53.602;11.418;2022-12-16T08:45:16;101142.06;;;2.05;100.00
3206;BME280;1615;53.602;11.418;2022-12-16T08:48:00;101143.03;;;1.92;100.00
3206;BME280;1615;53.602;11.418;2022-12-16T08:50:44;101140.94;;;1.94;100.00
3206;BME280;1615;53.602;11.418;2022-12-16T08:53:28;101141.03;;;1.88;100.00
3206;BME280;1615;53.602;11.418;2022-12-16T08:56:12;101171.19;;;1.85;100.00
3206;BME280;1615;53.602;11.418;2022-12-16T08:58:56;101153.94;;;1.86;100.00
3206;BME280;1615;53.602;11.418;2022-12-16T09:01:39;101141.66;;;1.72;100.00
3206;BME280;1615;53.602;11.418;2022-12-16T09:04:23;101156.78;;;1.91;100.00
3206;BME280;1615;53.602;11.418;2022-12-16T09:07:07;101160.09;;;1.93;100.00
3206;BME280;1615;53.602;11.418;2022-12-16T09:09:51;101163.53;;;2.00;100.00
3206;BME280;1615;53.602;11.418;2022-12-16T09:12:35;101170.56;;;2.19;100.00
3206;BME280;1615;53.602;11.418;2022-12-16T09:15:19;101172.22;;;2.20;100.00
3206;BME280;1615;53.602;11.418;2022-12-16T09:18:04;101176.72;;;2.26;100.00
3206;BME280;1615;53.602;11.418;2022-12-16T09:20:47;101129.44;;;1.99;100.00
3206;BME280;1615;53.602;11.418;2022-12-16T09:23:35;101182.75;;;2.39;100.00
3206;BME280;1615;53.602;11.418;2022-12-16T09:26:19;101182.88;;;2.44;100.00
3206;BME280;1615;53.602;11.418;2022-12-16T09:29:03;101104.56;;;1.79;100.00
3206;BME280;1615;53.602;11.418;2022-12-16T09:31:47;101190.94;;;2.21;100.00
3206;BME280;1615;53.602;11.418;2022-12-16T09:34:31;101188.44;;;2.20;100.00
3206;BME280;1615;53.602;11.418;2022-12-16T09:37:15;101118.16;;;1.72;100.00
3206;BME280;1615;53.602;11.418;2022-12-16T09:40:13;101190.94;;;2.33;100.00
3206;BME280;1615;53.602;11.418;2022-12-16T09:43:22;101178.06;;;2.17;100.00
3206;BME280;1615;53.602;11.418;2022-12-16T09:46:38;101201.34;;;2.36;100.00
3206;BME280;1615;53.602;11.418;2022-12-16T09:49:58;101206.88;;;2.41;100.00
3206;BME280;1615;53.602;11.418;2022-12-16T09:52:56;101125.00;;;2.04;100.00
3206;BME280;1615;53.602;11.418;2022-12-16T09:55:43;101136.31;;;2.13;100.00
3206;BME280;1615;53.602;11.418;2022-12-16T09:58:31;101210.00;;;2.67;100.00
3206;BME280;1615;53.602;11.418;2022-12-16T10:01:18;101207.88;;;2.58;100.00
3206;BME280;1615;53.602;11.418;2022-12-16T10:04:04;101189.72;;;2.47;100.00
3206;BME280;1615;53.602;11.418;2022-12-16T10:06:51;101207.59;;;2.48;100.00
3206;BME280;1615;53.602;11.418;2022-12-16T10:12:51;101194.66;;;2.50;100.00
3206;BME280;1615;53.602;11.418;2022-12-16T10:15:56;101204.66;;;2.49;100.00
3206;BME280;1615;53.602;11.418;2022-12-16T10:21:39;101194.41;;;2.69;100.00
3206;BME280;1615;53.602;11.418;2022-12-16T10:24:59;101197.19;;;2.63;100.00
3206;BME280;1615;53.602;11.418;2022-12-16T10:27:48;101204.09;;;2.59;100.00
3206;BME280;1615;53.602;11.418;2022-12-16T10:30:35;101201.31;;;2.65;100.00
3206;BME280;1615;53.602;11.418;2022-12-16T10:33:23;101195.69;;;2.67;100.00
3206;BME280;1615;53.602;11.418;2022-12-16T10:36:19;101196.63;;;2.72;100.00
3206;BME280;1615;53.602;11.418;2022-12-16T10:39:18;101188.19;;;2.92;100.00
3206;BME280;1615;53.602;11.418;2022-12-16T10:42:16;101203.38;;;3.04;100.00
3206;BME280;1615;53.602;11.418;2022-12-16T10:45:02;101131.66;;;2.72;100.00
3206;BME280;1615;53.602;11.418;2022-12-16T10:47:46;101206.38;;;3.26;100.00
3206;BME280;1615;53.602;11.418;2022-12-16T10:50:30;101203.88;;;3.24;100.00
3206;BME280;1615;53.602;11.418;2022-12-16T10:53:18;101209.31;;;3.24;100.00
3206;BME280;1615;53.602;11.418;2022-12-16T10:59:16;101213.44;;;3.50;100.00
3206;BME280;1615;53.602;11.418;2022-12-16T11:02:15;101214.34;;;3.67;100.00
3206;BME280;1615;53.602;11.418;2022-12-16T11:05:00;101206.22;;;3.78;100.00
3206;BME280;1615;53.602;11.418;2022-12-16T11:13:35;101139.69;;;3.48;100.00
3206;BME280;1615;53.602;11.418;2022-12-16T11:16:22;101207.91;;;3.68;100.00
3206;BME280;1615;53.602;11.418;2022-12-16T11:19:23;101086.38;;;2.68;100.00
3206;BME280;1615;53.602;11.418;2022-12-16T11:22:17;101215.19;;;3.56;100.00
3206;BME280;1615;53.602;11.418;2022-12-16T11:25:20;101214.00;;;3.75;100.00
3206;BME280;1615;53.602;11.418;2022-12-16T11:28:11;101216.94;;;3.85;100.00
3206;BME280;1615;53.602;11.418;2022-12-16T11:30:58;101189.25;;;3.71;100.00
3206;BME280;1615;53.602;11.418;2022-12-16T11:33:44;101220.59;;;3.79;100.00
3206;BME280;1615;53.602;11.418;2022-12-16T11:36:31;101212.94;;;3.76;100.00
3206;BME280;1615;53.602;11.418;2022-12-16T11:39:18;101217.19;;;3.83;100.00
3206;BME280;1615;53.602;11.418;2022-12-16T11:42:03;101224.47;;;3.83;100.00
3206;BME280;1615;53.602;11.418;2022-12-16T11:45:00;101228.94;;;3.89;100.00
3206;BME280;1615;53.602;11.418;2022-12-16T11:47:53;101219.16;;;3.99;100.00
3206;BME280;1615;53.602;11.418;2022-12-16T11:50:53;101223.94;;;4.09;100.00
3206;BME280;1615;53.602;11.418;2022-12-16T11:53:44;101217.91;;;4.18;100.00
3206;BME280;1615;53.602;11.418;2022-12-16T11:56:37;101215.78;;;4.20;100.00
3206;BME280;1615;53.602;11.418;2022-12-16T12:05:24;101221.22;;;4.20;100.00
3206;BME280;1615;53.602;11.418;2022-12-16T12:08:28;101217.31;;;4.28;100.00
3206;BME280;1615;53.602;11.418;2022-12-16T12:11:33;101221.53;;;4.35;100.00
3206;BME280;1615;53.602;11.418;2022-12-16T12:20:33;101232.31;;;4.47;100.00
3206;BME280;1615;53.602;11.418;2022-12-16T12:23:45;101233.63;;;4.44;100.00
3206;BME280;1615;53.602;11.418;2022-12-16T12:26:32;101231.66;;;4.40;100.00
3206;BME280;1615;53.602;11.418;2022-12-16T12:32:35;101233.50;;;4.51;100.00
3206;BME280;1615;53.602;11.418;2022-12-16T12:38:41;101232.81;;;4.44;100.00
3206;BME280;1615;53.602;11.418;2022-12-16T12:44:53;101237.22;;;4.33;100.00
3206;BME280;1615;53.602;11.418;2022-12-16T12:47:46;101240.19;;;4.32;100.00
3206;BME280;1615;53.602;11.418;2022-12-16T12:50:39;101245.56;;;4.43;100.00
3206;BME280;1615;53.602;11.418;2022-12-16T12:56:48;101248.25;;;4.04;100.00
3206;BME280;1615;53.602;11.418;2022-12-16T12:59:55;101261.25;;;4.02;100.00
3206;BME280;1615;53.602;11.418;2022-12-16T13:05:55;101264.56;;;3.81;100.00
3206;BME280;1615;53.602;11.418;2022-12-16T13:11:37;101225.88;;;3.97;100.00
3206;BME280;1615;53.602;11.418;2022-12-16T13:17:19;101253.91;;;4.14;100.00
3206;BME280;1615;53.602;11.418;2022-12-16T13:26:12;101268.06;;;4.16;100.00
3206;BME280;1615;53.602;11.418;2022-12-16T13:32:02;101270.81;;;3.81;100.00
3206;BME280;1615;53.602;11.418;2022-12-16T13:35:18;101265.59;;;3.91;100.00
3206;BME280;1615;53.602;11.418;2022-12-16T13:38:03;101280.38;;;3.84;100.00
3206;BME280;1615;53.602;11.418;2022-12-16T13:40:55;101280.25;;;3.67;100.00
3206;BME280;1615;53.602;11.418;2022-12-16T13:43:57;101288.84;;;3.76;100.00
3206;BME280;1615;53.602;11.418;2022-12-16T13:46:49;101291.69;;;3.81;100.00
3206;BME280;1615;53.602;11.418;2022-12-16T13:49:45;101295.47;;;3.80;100.00
3206;BME280;1615;53.602;11.418;2022-12-16T14:01:11;101303.94;;;3.95;100.00
3206;BME280;1615;53.602;11.418;2022-12-16T14:03:58;101314.41;;;3.91;100.00
3206;BME280;1615;53.602;11.418;2022-12-16T14:06:43;101316.22;;;3.86;100.00
3206;BME280;1615;53.602;11.418;2022-12-16T14:09:36;101303.72;;;3.85;100.00
3206;BME280;1615;53.602;11.418;2022-12-16T14:15:28;101327.97;;;4.03;100.00
3206;BME280;1615;53.602;11.418;2022-12-16T14:18:27;101254.31;;;3.48;100.00
3206;BME280;1615;53.602;11.418;2022-12-16T14:21:23;101339.31;;;4.00;100.00
3206;BME280;1615;53.602;11.418;2022-12-16T14:24:18;101342.50;;;3.85;100.00
3206;BME280;1615;53.602;11.418;2022-12-16T14:27:12;101354.63;;;3.83;100.00
3206;BME280;1615;53.602;11.418;2022-12-16T14:29:57;101352.53;;;3.85;100.00
3206;BME280;1615;53.602;11.418;2022-12-16T14:32:41;101355.69;;;3.82;100.00
3206;BME280;1615;53.602;11.418;2022-12-16T14:35:26;101351.78;;;3.78;100.00
3206;BME280;1615;53.602;11.418;2022-12-16T14:41:11;101283.59;;;3.17;100.00
3206;BME280;1615;53.602;11.418;2022-12-16T14:43:55;101359.09;;;3.66;100.00
3206;BME280;1615;53.602;11.418;2022-12-16T14:46:39;101365.34;;;3.66;100.00
3206;BME280;1615;53.602;11.418;2022-12-16T14:49:28;101319.09;;;3.38;100.00
3206;BME280;1615;53.602;11.418;2022-12-16T14:55:16;101379.50;;;3.68;100.00
3206;BME280;1615;53.602;11.418;2022-12-16T14:58:12;101372.06;;;3.64;100.00
3206;BME280;1615;53.602;11.418;2022-12-16T15:01:17;101387.13;;;3.60;100.00
3206;BME280;1615;53.602;11.418;2022-12-16T15:04:04;101387.34;;;3.47;100.00
3206;BME280;1615;53.602;11.418;2022-12-16T15:06:52;101386.47;;;3.35;100.00
3206;BME280;1615;53.602;11.418;2022-12-16T15:09:40;101395.22;;;3.37;100.00
3206;BME280;1615;53.602;11.418;2022-12-16T15:12:27;101400.72;;;3.30;100.00
3206;BME280;1615;53.602;11.418;2022-12-16T15:15:15;101359.38;;;2.94;100.00
3206;BME280;1615;53.602;11.418;2022-12-16T15:18:01;101401.41;;;3.26;100.00
3206;BME280;1615;53.602;11.418;2022-12-16T15:20:53;101401.56;;;3.31;100.00
3206;BME280;1615;53.602;11.418;2022-12-16T15:23:39;101412.91;;;3.39;100.00
3206;BME280;1615;53.602;11.418;2022-12-16T15:26:26;101411.97;;;3.45;100.00
3206;BME280;1615;53.602;11.418;2022-12-16T15:37:53;101401.78;;;3.29;100.00
3206;BME280;1615;53.602;11.418;2022-12-16T15:40:39;101418.19;;;3.46;100.00
3206;BME280;1615;53.602;11.418;2022-12-16T15:43:29;101424.09;;;3.43;100.00
3206;BME280;1615;53.602;11.418;2022-12-16T15:46:25;101421.97;;;3.45;100.00
3206;BME280;1615;53.602;11.418;2022-12-16T15:49:21;101434.00;;;3.49;100.00
3206;BME280;1615;53.602;11.418;2022-12-16T15:52:33;101426.31;;;3.34;100.00
3206;BME280;1615;53.602;11.418;2022-12-16T15:58:22;101432.66;;;3.40;100.00
3206;BME280;1615;53.602;11.418;2022-12-16T16:01:07;101427.13;;;3.35;100.00
3206;BME280;1615;53.602;11.418;2022-12-16T16:03:53;101433.47;;;3.29;100.00
3206;BME280;1615;53.602;11.418;2022-12-16T16:06:41;101445.22;;;3.23;100.00
3206;BME280;1615;53.602;11.418;2022-12-16T16:09:29;101443.09;;;3.25;100.00